Saint-Jean-Port-Joli, Canada
Current Conditions -  °F | °C
As of 1:00 PM on Monday 20 Oct 2014 (Local Time) from CYQB Reporting Station
Scattered Clouds Scattered Clouds  
Wind Chill: 38°   Ceiling: Unl
Heat Index: 45°   Visibility: 30mi
Dew Point: 28°   Wind: 14mph
Humidity: 53%   Direction: 240°WSW
Pressure: 29.88"   Gusts: 22mph
Location:  47.2°N, 70.27°W
Report Text: CYQB 201700Z 24012G19KT 30SM FEW043 SCT220 07/M02 A2988 RMK SC2CI2 SLP123
Loading
Personal Weather Stations






























Interactive Weather Map
Tropical Storm Tracking
New forecast layout! Learn more

10-Day Weather Forecast

Advertisements
Track Severe Weather on mobile